Pride Of Canterbury — MPQZ6 — position and weather

sailwx.info

Track history (hours):
 
Tides and Currents Weather Stations Pressure Air Temp Water Temp Dewpoint Dewpoint Depression Visibility Wind Speed Wind Dir Waves Ship Positions

Pride Of Canterbury

Operator: P & O Ferries

Last reported at 2017-Jun-23 20:00 UTC. Time now 2017-Jun-23 20:27 UTC.
Position N 51°04' E 001°26'.

Length 180 m; draft 5.7 m.

Type: Passenger vessel. MMSI: 232001060.

Date/timePositionNaut miles runAvg speedWind from/ knotsBaromVisibWave heightAir tempDewpointWater temp
2017-Jun-23 20:00N 51°04' E 001°26'5 9.4
2017-Jun-23 19:29N 51°07' E 001°20'0 0.0
2017-Jun-23 18:58N 51°07' E 001°20'2 4.4
2017-Jun-23 18:31N 51°07' E 001°23'918.3
2017-Jun-23 18:00N 51°02' E 001°35'918.0
2017-Jun-23 17:30N 50°58' E 001°49'2 3.0
2017-Jun-23 16:59N 50°58' E 001°51'0 0.0
2017-Jun-23 16:28N 50°58' E 001°51'510.1
2017-Jun-23 16:00N 50°58' E 001°44'917.4
2017-Jun-23 15:30N 51°01' E 001°31'9 5.8
2017-Jun-23 14:01N 51°07' E 001°21'816.2
2017-Jun-23 13:30N 51°04' E 001°32'917.9
2017-Jun-23 13:00N 50°59' E 001°44'5 3.7
2017-Jun-23 11:46N 50°58' E 001°51'2 6.9
2017-Jun-23 11:31N 50°58' E 001°48'1218.2
2017-Jun-23 10:52N 51°02' E 001°31'718.4
2017-Jun-23 10:30N 51°06' E 001°23'2 1.9
2017-Jun-23 09:32N 51°07' E 001°20'0 1.5
2017-Jun-23 09:17N 51°07' E 001°20'415.2
2017-Jun-23 09:00N 51°06' E 001°27'918.5
2017-Jun-23 08:30N 51°01' E 001°39'815.7
2017-Jun-23 08:01N 50°58' E 001°51'0 0.2
2017-Jun-23 07:29N 50°58' E 001°51'1 1.2
2017-Jun-23 06:53N 50°58' E 001°50'615.4
2017-Jun-23 06:31N 50°59' E 001°41'918.2
2017-Jun-23 06:00N 51°03' E 001°28'710.4
2017-Jun-23 05:23N 51°07' E 001°20'0 0.0
2017-Jun-23 04:57N 51°07' E 001°20'0 0.0
2017-Jun-23 04:30N 51°07' E 001°20'2 3.2
2017-Jun-23 04:01N 51°07' E 001°23'816.9
2017-Jun-23 03:30N 51°04' E 001°35'918.5
2017-Jun-23 03:01N 50°58' E 001°47'3 5.4
2017-Jun-23 02:29N 50°58' E 001°51'0 0.0
2017-Jun-23 02:00N 50°58' E 001°51'510.0
2017-Jun-23 01:30N 50°58' E 001°43'1019.3
2017-Jun-23 01:00N 51°03' E 001°30'812.2
2017-Jun-23 00:23N 51°07' E 001°20'0 0.0
2017-Jun-22 23:54N 51°07' E 001°20'2 6.3
2017-Jun-22 23:31N 51°07' E 001°24'917.6
2017-Jun-22 23:01N 51°03' E 001°37'816.6
2017-Jun-22 22:30N 50°58' E 001°47'2 4.6
2017-Jun-22 22:00N 50°58' E 001°51'0 0.0
2017-Jun-22 21:29N 50°58' E 001°51'612.1
2017-Jun-22 21:00N 50°58' E 001°42'1019.4
2017-Jun-22 20:30N 51°03' E 001°28'712.3
2017-Jun-22 19:57N 51°07' E 001°20'0 0.0
2017-Jun-22 19:28N 51°07' E 001°20'1 1.3
2017-Jun-22 19:00N 51°07' E 001°21'918.2
2017-Jun-22 18:31N 51°02' E 001°33'918.6
2017-Jun-22 18:00N 50°58' E 001°46'3 6.1
2017-Jun-22 17:30N 50°58' E 001°51'0 0.0
2017-Jun-22 17:01N 50°58' E 001°51'1 1.9
2017-Jun-22 16:30N 50°58' E 001°50'815.9
2017-Jun-22 16:00N 50°60' E 001°37'918.6
2017-Jun-22 15:30N 51°05' E 001°25'4 7.4
2017-Jun-22 14:59N 51°07' E 001°20'0 0.0
2017-Jun-22 14:25N 51°07' E 001°20'1010.6
2017-Jun-22 13:31N 51°04' E 001°35'917.7
2017-Jun-22 13:01N 50°58' E 001°45'4 7.5
2017-Jun-22 12:29N 50°58' E 001°51'0 0.0
2017-Jun-22 11:59N 50°58' E 001°51'4 8.9
2017-Jun-22 11:30N 50°58' E 001°44'918.6
2017-Jun-22 11:01N 51°02' E 001°31'913.4
2017-Jun-22 10:22N 51°07' E 001°20'0 0.0
2017-Jun-22 09:47N 51°07' E 001°20'0 0.3
2017-Jun-22 09:27N 51°07' E 001°20'612.2
2017-Jun-22 09:00N 51°05' E 001°28'917.9
2017-Jun-22 08:30N 50°60' E 001°40'714.2
2017-Jun-22 08:00N 50°58' E 001°51'0 0.4
2017-Jun-22 07:31N 50°58' E 001°51'0 0.1
2017-Jun-22 07:00N 50°58' E 001°51'816.2
2017-Jun-22 06:30N 50°59' E 001°38'918.6
2017-Jun-22 06:00N 51°03' E 001°25'510.2
2017-Jun-22 05:30N 51°07' E 001°20'0 0.0
2017-Jun-22 05:00N 51°07' E 001°20'0 0.3
2017-Jun-22 04:30N 51°07' E 001°20'3 5.5
2017-Jun-22 04:00N 51°07' E 001°24'918.0
2017-Jun-22 03:30N 51°03' E 001°38'816.1
2017-Jun-22 03:00N 50°58' E 001°47'2 4.8
2017-Jun-22 02:30N 50°58' E 001°51'0 0.0
2017-Jun-22 02:00N 50°58' E 001°51'4 7.4
2017-Jun-22 01:30N 50°58' E 001°45'917.7
2017-Jun-22 01:00N 51°01' E 001°32'815.2
2017-Jun-22 00:31N 51°06' E 001°23'2 3.6
2017-Jun-21 23:51N 51°07' E 001°20'0 0.4
2017-Jun-21 23:30N 51°07' E 001°20'715.0
2017-Jun-21 23:00N 51°05' E 001°32'918.4
2017-Jun-21 22:30N 50°59' E 001°43'510.7
2017-Jun-21 22:01N 50°58' E 001°51'0 0.0
2017-Jun-21 21:30N 50°58' E 001°51'2 3.1
2017-Jun-21 21:00N 50°58' E 001°49'1019.5
2017-Jun-21 20:30N 51°01' E 001°34'918.6
2017-Jun-21 20:00N 51°06' E 001°22'2 1.3
2017-Jun-21 18:46N 51°07' E 001°20'2 8.5
2017-Jun-21 18:31N 51°07' E 001°24'1019.2
2017-Jun-21 18:00N 51°01' E 001°36'918.6
2017-Jun-21 17:31N 50°58' E 001°50'1 1.5
2017-Jun-21 17:01N 50°58' E 001°51'0 0.0
2017-Jun-21 16:31N 50°58' E 001°51'4 8.0
2017-Jun-21 16:00N 50°58' E 001°45'916.9
2017-Jun-21 15:30N 51°01' E 001°32'918.4
2017-Jun-21 15:00N 51°07' E 001°21'1 1.2
2017-Jun-21 14:30N 51°07' E 001°20'6 6.4
2017-Jun-21 13:30N 51°05' E 001°30'1019.3
2017-Jun-21 13:01N 50°59' E 001°42'611.5
2017-Jun-21 12:30N 50°58' E 001°51'0 0.0
2017-Jun-21 11:55N 50°58' E 001°51'2 6.0
2017-Jun-21 11:31N 50°58' E 001°47'1117.9
2017-Jun-21 10:52N 51°02' E 001°30'719.0
2017-Jun-21 10:30N 51°07' E 001°22'2 2.9
2017-Jun-21 09:59N 51°07' E 001°20'0 0.0
2017-Jun-21 09:30N 51°07' E 001°20'2 3.9
2017-Jun-21 09:00N 51°07' E 001°23'917.1
2017-Jun-21 08:30N 51°03' E 001°35'917.6
2017-Jun-21 08:00N 50°58' E 001°47'3 5.4
2017-Jun-21 07:30N 50°58' E 001°51'0 0.0
2017-Jun-21 06:59N 50°58' E 001°51'613.1
2017-Jun-21 06:30N 50°58' E 001°41'918.5
2017-Jun-21 06:00N 51°03' E 001°28'712.9
2017-Jun-21 05:29N 51°07' E 001°20'0 0.0
2017-Jun-21 04:33N 51°07' E 001°20'0 2.6
2017-Jun-21 04:29N 51°07' E 001°20'510.7
2017-Jun-21 04:01N 51°06' E 001°28'918.9
2017-Jun-21 03:30N 50°60' E 001°39'816.3
2017-Jun-21 03:00N 50°58' E 001°52'0 0.1
2017-Jun-21 02:30N 50°58' E 001°52'0 0.0
2017-Jun-21 02:00N 50°58' E 001°52'0 0.3
2017-Jun-21 01:30N 50°58' E 001°51'714.5
2017-Jun-21 01:00N 50°58' E 001°40'918.0
2017-Jun-21 00:30N 51°04' E 001°29'610.4
2017-Jun-20 23:53N 51°07' E 001°20'0 0.0
2017-Jun-20 23:27N 51°07' E 001°20'2 4.9
2017-Jun-20 23:01N 51°07' E 001°23'1019.1
2017-Jun-20 22:30N 51°02' E 001°37'917.7
2017-Jun-20 22:00N 50°58' E 001°49'1 2.0
2017-Jun-20 21:30N 50°58' E 001°51'0 0.0
2017-Jun-20 21:00N 50°58' E 001°51'5 9.9
2017-Jun-20 20:29N 50°58' E 001°43'919.5
2017-Jun-20 20:00N 51°03' E 001°30'8 8.1
2017-Jun-20 19:03N 51°07' E 001°20'0 0.0
2017-Jun-20 19:01N 51°07' E 001°20'0 0.2
2017-Jun-20 18:30N 51°07' E 001°20'612.8
2017-Jun-20 18:00N 51°05' E 001°30'919.0
2017-Jun-20 17:30N 50°60' E 001°42'611.7
2017-Jun-20 17:00N 50°58' E 001°51'0 0.0
2017-Jun-20 16:30N 50°58' E 001°51'1 2.8
2017-Jun-20 16:00N 50°58' E 001°49'816.4
2017-Jun-20 15:30N 50°59' E 001°36'918.6
2017-Jun-20 15:00N 51°05' E 001°24'4 7.1
2017-Jun-20 14:30N 51°07' E 001°20'3 3.4
2017-Jun-20 13:30N 51°07' E 001°25'918.5
2017-Jun-20 13:01N 51°01' E 001°37'917.7
2017-Jun-20 12:30N 50°58' E 001°51'0 0.7
2017-Jun-20 12:00N 50°58' E 001°51'1 1.1
2017-Jun-20 11:30N 50°58' E 001°50'815.9
2017-Jun-20 11:01N 50°60' E 001°38'1019.1
2017-Jun-20 10:30N 51°05' E 001°25'4 7.6
2017-Jun-20 09:59N 51°07' E 001°20'0 0.1
2017-Jun-20 09:19N 51°07' E 001°20'2 5.3
2017-Jun-20 09:00N 51°07' E 001°23'918.3
2017-Jun-20 08:30N 51°03' E 001°35'816.7
2017-Jun-20 08:00N 50°58' E 001°47'3 4.1
2017-Jun-20 07:20N 50°58' E 001°51'0 0.0
2017-Jun-20 06:58N 50°58' E 001°51'4 9.0
2017-Jun-20 06:31N 50°58' E 001°45'1019.5
2017-Jun-20 06:00N 51°02' E 001°30'816.0
2017-Jun-20 05:29N 51°07' E 001°20'0 0.1
2017-Jun-20 05:01N 51°07' E 001°20'0 0.0
2017-Jun-20 04:30N 51°07' E 001°20'1 1.4
2017-Jun-20 04:00N 51°07' E 001°21'817.1
2017-Jun-20 03:30N 51°05' E 001°34'816.7
2017-Jun-20 03:00N 50°59' E 001°44'5 9.2
2017-Jun-20 02:30N 50°58' E 001°51'0 0.0
2017-Jun-20 02:00N 50°58' E 001°51'0 0.0
2017-Jun-20 01:30N 50°58' E 001°51'510.2
2017-Jun-20 01:00N 50°58' E 001°43'713.8
2017-Jun-20 00:30N 50°60' E 001°32'713.7
2017-Jun-20 00:00N 51°04' E 001°24'4 4.9
2017-Jun-19 23:10N 51°07' E 001°20'0 0.0
2017-Jun-19 22:59N 51°07' E 001°20'612.9
2017-Jun-19 22:31N 51°06' E 001°30'1019.1
2017-Jun-19 22:01N 50°60' E 001°41'612.7
2017-Jun-19 21:30N 50°58' E 001°51'0 0.0
2017-Jun-19 21:00N 50°58' E 001°51'3 6.2
2017-Jun-19 20:30N 50°58' E 001°46'1019.6
2017-Jun-19 20:00N 51°02' E 001°32'712.9
2017-Jun-19 19:30N 51°06' E 001°24'3 3.9
2017-Jun-19 18:50N 51°07' E 001°20'0 0.0
2017-Jun-19 18:24N 51°07' E 001°20'411.2
2017-Jun-19 18:00N 51°06' E 001°27'1019.7
2017-Jun-19 17:30N 51°01' E 001°40'815.1
2017-Jun-19 17:00N 50°58' E 001°51'0 0.1
2017-Jun-19 16:30N 50°58' E 001°51'0 0.0
2017-Jun-19 16:00N 50°58' E 001°51'713.2
2017-Jun-19 15:30N 50°59' E 001°41'919.0
2017-Jun-19 15:01N 51°04' E 001°28'6 5.9
2017-Jun-19 13:58N 51°07' E 001°20'4 8.9
2017-Jun-19 13:30N 51°06' E 001°26'816.2
2017-Jun-19 13:00N 51°02' E 001°37'917.5
2017-Jun-19 12:30N 50°58' E 001°50'1 1.7
2017-Jun-19 12:00N 50°58' E 001°51'0 0.0
2017-Jun-19 11:30N 50°58' E 001°51'510.2
2017-Jun-19 11:00N 50°58' E 001°43'917.7
2017-Jun-19 10:30N 51°03' E 001°31'816.5
2017-Jun-19 10:00N 51°07' E 001°20'0 0.0
2017-Jun-19 09:21N 51°07' E 001°20'2 5.8
2017-Jun-19 09:00N 51°07' E 001°23'917.2
2017-Jun-19 08:30N 51°03' E 001°35'816.7
2017-Jun-19 08:00N 50°58' E 001°46'3 6.1
2017-Jun-19 07:30N 50°58' E 001°51'0 0.0
2017-Jun-19 07:01N 50°58' E 001°51'510.4
2017-Jun-19 06:30N 50°58' E 001°43'918.1
2017-Jun-19 06:00N 51°03' E 001°31'815.2
2017-Jun-19 05:29N 51°07' E 001°20'0 0.0
2017-Jun-19 04:56N 51°07' E 001°20'0 0.0
2017-Jun-19 04:21N 51°07' E 001°20'0 1.4
2017-Jun-19 04:00N 51°07' E 001°21'917.1
2017-Jun-19 03:30N 51°03' E 001°33'917.9
2017-Jun-19 03:00N 50°58' E 001°45'4 6.4
2017-Jun-19 02:22N 50°58' E 001°51'0 0.0
2017-Jun-19 01:58N 50°58' E 001°51'0 0.0
2017-Jun-19 01:30N 50°58' E 001°51'510.8
2017-Jun-19 01:00N 50°58' E 001°42'713.6
2017-Jun-19 00:30N 50°57' E 001°32'917.9
2017-Jun-19 00:00N 51°05' E 001°25'4 7.6
2017-Jun-18 23:29N 51°07' E 001°20'0 0.1
2017-Jun-18 23:00N 51°07' E 001°20'714.1
2017-Jun-18 22:31N 51°06' E 001°31'917.8
2017-Jun-18 22:00N 50°60' E 001°42'611.1
2017-Jun-18 21:27N 50°58' E 001°51'0 0.0
2017-Jun-18 20:56N 50°58' E 001°51'0 0.5
2017-Jun-18 20:31N 50°58' E 001°51'816.2
2017-Jun-18 20:01N 50°60' E 001°38'917.8
2017-Jun-18 19:30N 51°04' E 001°26'5 4.4
2017-Jun-18 18:26N 51°07' E 001°20'4 8.4
2017-Jun-18 18:00N 51°06' E 001°26'917.8
2017-Jun-18 17:30N 51°01' E 001°37'815.9
2017-Jun-18 17:00N 50°58' E 001°49'1 2.8
2017-Jun-18 16:29N 50°58' E 001°51'0 0.5
2017-Jun-18 15:58N 50°58' E 001°51'817.8
2017-Jun-18 15:30N 50°59' E 001°38'917.1
2017-Jun-18 15:00N 51°04' E 001°27'5 5.1
2017-Jun-18 13:57N 51°07' E 001°20'4 8.0
2017-Jun-18 13:30N 51°06' E 001°25'917.5
2017-Jun-18 13:00N 51°02' E 001°37'917.2
2017-Jun-18 12:30N 50°58' E 001°50'1 1.9
2017-Jun-18 12:00N 50°58' E 001°51'0 0.0
2017-Jun-18 11:30N 50°58' E 001°51'713.1
2017-Jun-18 11:00N 50°58' E 001°41'817.0
2017-Jun-18 10:30N 51°03' E 001°30'811.5
2017-Jun-18 09:51N 51°07' E 001°20'0 0.0
2017-Jun-18 09:26N 51°07' E 001°20'3 6.5
2017-Jun-18 09:00N 51°07' E 001°24'816.7
2017-Jun-18 08:30N 51°03' E 001°36'816.9
2017-Jun-18 08:00N 50°58' E 001°47'2 4.9
2017-Jun-18 07:31N 50°58' E 001°51'0 0.0
2017-Jun-18 07:00N 50°58' E 001°51'714.3
2017-Jun-18 06:30N 50°59' E 001°40'918.1
2017-Jun-18 06:01N 51°04' E 001°28'611.6
2017-Jun-18 05:30N 51°07' E 001°20'0 0.0
2017-Jun-18 05:00N 51°07' E 001°20'0 0.0
2017-Jun-18 04:10N 51°07' E 001°20'0 1.8
2017-Jun-18 04:00N 51°07' E 001°21'917.9
2017-Jun-18 03:31N 51°05' E 001°34'918.9
2017-Jun-18 03:00N 50°58' E 001°45'4 7.7
2017-Jun-18 02:30N 50°58' E 001°51'0 0.0
2017-Jun-18 01:56N 50°58' E 001°51'0 0.0
2017-Jun-18 01:24N 50°58' E 001°51'4 9.5
2017-Jun-18 01:00N 50°58' E 001°45'816.2
2017-Jun-18 00:30N 51°01' E 001°33'917.4
2017-Jun-18 00:00N 51°06' E 001°22'2 2.6
2017-Jun-17 23:17N 51°07' E 001°20'0 0.5
2017-Jun-17 23:00N 51°07' E 001°20'815.5
2017-Jun-17 22:31N 51°04' E 001°31'918.0
2017-Jun-17 22:01N 50°59' E 001°43'510.2
2017-Jun-17 21:30N 50°58' E 001°51'0 0.0
2017-Jun-17 20:59N 50°58' E 001°51'0 0.8
2017-Jun-17 20:30N 50°58' E 001°51'816.5
2017-Jun-17 20:00N 50°59' E 001°37'816.6
2017-Jun-17 19:30N 51°04' E 001°27'6 5.0
2017-Jun-17 18:23N 51°07' E 001°20'513.8
2017-Jun-17 18:01N 51°07' E 001°29'816.2
2017-Jun-17 17:30N 51°02' E 001°38'816.3
2017-Jun-17 17:00N 50°58' E 001°50'1 1.0
2017-Jun-17 16:25N 50°58' E 001°51'0 0.0
2017-Jun-17 16:00N 50°58' E 001°51'713.2
2017-Jun-17 15:30N 50°59' E 001°41'1019.1
2017-Jun-17 15:00N 51°04' E 001°28'6 4.7
2017-Jun-17 13:45N 51°07' E 001°20'312.9
2017-Jun-17 13:30N 51°07' E 001°25'816.1
2017-Jun-17 13:00N 51°02' E 001°36'817.0
2017-Jun-17 12:30N 50°58' E 001°47'2 4.6
2017-Jun-17 12:00N 50°58' E 001°51'0 0.0
2017-Jun-17 11:30N 50°58' E 001°51'713.3
2017-Jun-17 11:00N 50°58' E 001°40'918.4
2017-Jun-17 10:30N 51°04' E 001°29'7 7.0
2017-Jun-17 09:33N 51°07' E 001°20'0 0.0
2017-Jun-17 09:29N 51°07' E 001°20'2 4.8
2017-Jun-17 09:01N 51°07' E 001°24'917.4
2017-Jun-17 08:30N 51°03' E 001°36'817.0
2017-Jun-17 08:00N 50°58' E 001°47'2 3.8
2017-Jun-17 07:22N 50°58' E 001°51'0 0.0
2017-Jun-17 06:59N 50°58' E 001°51'510.9
2017-Jun-17 06:30N 50°58' E 001°43'1019.3
2017-Jun-17 06:00N 51°03' E 001°29'7 4.1
2017-Jun-17 04:12N 51°07' E 001°20'315.1
2017-Jun-17 04:00N 51°07' E 001°25'1019.3
2017-Jun-17 03:30N 51°02' E 001°38'816.8
2017-Jun-17 03:00N 50°58' E 001°50'1 2.0
2017-Jun-17 02:30N 50°58' E 001°52'0 0.0
2017-Jun-17 02:00N 50°58' E 001°52'0 0.0
2017-Jun-17 01:30N 50°58' E 001°52'4 8.3
2017-Jun-17 01:00N 50°58' E 001°45'917.8
2017-Jun-17 00:31N 51°01' E 001°32'918.7
2017-Jun-17 00:01N 51°06' E 001°20'1 1.9
2017-Jun-16 23:30N 51°07' E 001°20'0 0.0
2017-Jun-16 23:00N 51°07' E 001°20'510.9
2017-Jun-16 22:31N 51°05' E 001°28'917.2
2017-Jun-16 22:01N 51°01' E 001°40'815.1
2017-Jun-16 21:31N 50°58' E 001°51'0 0.2
2017-Jun-16 21:00N 50°58' E 001°51'0 0.9
2017-Jun-16 20:31N 50°58' E 001°50'917.2
2017-Jun-16 20:01N 50°60' E 001°37'1019.3
2017-Jun-16 19:31N 51°05' E 001°24'3 6.3
2017-Jun-16 18:57N 51°07' E 001°20'0 0.0
2017-Jun-16 18:30N 51°07' E 001°20'3 5.6
2017-Jun-16 18:01N 51°07' E 001°24'917.3
2017-Jun-16 17:31N 51°03' E 001°37'917.0
2017-Jun-16 17:00N 50°58' E 001°48'2 4.2
2017-Jun-16 16:30N 50°58' E 001°51'0 0.0
2017-Jun-16 16:00N 50°58' E 001°51'612.6
2017-Jun-16 15:30N 50°58' E 001°41'918.9
2017-Jun-16 15:00N 51°03' E 001°29'713.1
2017-Jun-16 14:30N 51°07' E 001°20'1 1.4
2017-Jun-16 13:30N 51°07' E 001°22'1019.5
2017-Jun-16 13:00N 51°02' E 001°36'918.7
2017-Jun-16 12:30N 50°58' E 001°49'1 2.4
2017-Jun-16 12:00N 50°58' E 001°51'0 0.0
2017-Jun-16 11:30N 50°58' E 001°51'714.2
2017-Jun-16 11:00N 50°59' E 001°40'1019.2
2017-Jun-16 10:30N 51°04' E 001°27'5 4.0
2017-Jun-16 09:12N 51°07' E 001°20'315.1
2017-Jun-16 09:00N 51°06' E 001°25'1019.7
2017-Jun-16 08:31N 51°01' E 001°38'917.1
2017-Jun-16 08:00N 50°58' E 001°51'0 0.4
2017-Jun-16 07:30N 50°58' E 001°51'0 0.0
2017-Jun-16 06:59N 50°58' E 001°51'4 9.5
2017-Jun-16 06:31N 50°58' E 001°44'1019.6
2017-Jun-16 06:01N 51°03' E 001°30'8 6.5
2017-Jun-16 04:47N 51°07' E 001°20'0 0.0
2017-Jun-16 04:30N 51°07' E 001°20'1 1.3
2017-Jun-16 04:00N 51°07' E 001°21'917.0
2017-Jun-16 03:31N 51°05' E 001°34'918.6
2017-Jun-16 03:01N 50°58' E 001°45'4 7.8
2017-Jun-16 02:30N 50°58' E 001°51'0 0.0
2017-Jun-16 01:59N 50°58' E 001°51'0 0.0
2017-Jun-16 01:29N 50°58' E 001°51'715.4
2017-Jun-16 01:00N 50°59' E 001°40'1019.7
2017-Jun-16 00:30N 51°04' E 001°26'5 9.7
2017-Jun-16 00:00N 51°07' E 001°20'0 0.0
2017-Jun-15 23:22N 51°07' E 001°20'1 1.7
2017-Jun-15 23:00N 51°07' E 001°21'918.2
2017-Jun-15 22:30N 51°04' E 001°34'1019.3
2017-Jun-15 22:00N 50°58' E 001°46'3 5.9
2017-Jun-15 21:30N 50°58' E 001°51'0 0.0
2017-Jun-15 20:59N 50°58' E 001°51'510.9
2017-Jun-15 20:30N 50°58' E 001°43'918.6
2017-Jun-15 20:00N 51°02' E 001°30'8 9.4
2017-Jun-15 19:10N 51°07' E 001°20'0 0.0
2017-Jun-15 18:47N 51°07' E 001°20'1 2.1
2017-Jun-15 18:30N 51°07' E 001°21'815.2
2017-Jun-15 18:00N 51°04' E 001°32'714.2
2017-Jun-15 17:30N 50°59' E 001°41'612.8
2017-Jun-15 17:00N 50°58' E 001°51'0 0.7
2017-Jun-15 16:29N 50°58' E 001°51'0 0.0
2017-Jun-15 16:00N 50°58' E 001°51'815.4
2017-Jun-15 15:29N 50°60' E 001°38'919.8
2017-Jun-15 15:00N 51°05' E 001°26'5 9.1
2017-Jun-15 14:30N 51°07' E 001°20'3 2.6
2017-Jun-15 13:30N 51°07' E 001°24'917.0
2017-Jun-15 13:00N 51°03' E 001°36'918.3
2017-Jun-15 12:30N 50°58' E 001°48'2 3.6
2017-Jun-15 12:00N 50°58' E 001°51'0 0.0
2017-Jun-15 11:30N 50°58' E 001°51'613.0
2017-Jun-15 11:01N 50°59' E 001°41'1019.3
2017-Jun-15 10:31N 51°04' E 001°28'610.0
2017-Jun-15 09:54N 51°07' E 001°20'0 0.0
2017-Jun-15 09:30N 51°07' E 001°20'0 0.8
2017-Jun-15 09:00N 51°07' E 001°21'1019.3
2017-Jun-15 08:30N 51°03' E 001°35'1019.1
2017-Jun-15 08:00N 50°58' E 001°48'2 4.2
2017-Jun-15 07:30N 50°58' E 001°51'0 0.0
2017-Jun-15 06:58N 50°58' E 001°51'613.2
2017-Jun-15 06:30N 50°58' E 001°42'1019.0
2017-Jun-15 06:00N 51°04' E 001°29'7 4.6
2017-Jun-15 04:33N 51°07' E 001°20'0 0.0
2017-Jun-15 04:28N 51°07' E 001°20'0 0.3
2017-Jun-15 04:00N 51°07' E 001°20'816.6
2017-Jun-15 03:30N 51°04' E 001°32'918.5
2017-Jun-15 03:00N 50°59' E 001°44'4 8.6
2017-Jun-15 02:30N 50°58' E 001°51'0 0.0
2017-Jun-15 02:00N 50°58' E 001°51'0 0.0
2017-Jun-15 01:30N 50°58' E 001°51'3 6.2
2017-Jun-15 01:00N 50°58' E 001°46'918.2
2017-Jun-15 00:30N 51°01' E 001°32'917.3
2017-Jun-15 00:01N 51°06' E 001°22'2 2.8
2017-Jun-14 23:24N 51°07' E 001°20'0 0.6
2017-Jun-14 23:00N 51°07' E 001°20'816.4
2017-Jun-14 22:30N 51°04' E 001°32'1020.5
2017-Jun-14 22:01N 50°58' E 001°45'4 7.1
2017-Jun-14 21:30N 50°58' E 001°51'0 0.0
2017-Jun-14 21:00N 50°58' E 001°51'612.6
2017-Jun-14 20:30N 50°58' E 001°41'916.7
2017-Jun-14 19:59N 51°02' E 001°29'816.1
2017-Jun-14 19:30N 51°07' E 001°20'0 0.0
2017-Jun-14 18:58N 51°07' E 001°20'0 0.6
2017-Jun-14 18:30N 51°07' E 001°20'4 7.9
2017-Jun-14 18:00N 51°06' E 001°26'917.4
2017-Jun-14 17:30N 51°01' E 001°37'917.5
2017-Jun-14 17:01N 50°58' E 001°50'1 1.1
2017-Jun-14 16:30N 50°58' E 001°51'0 0.6
2017-Jun-14 16:00N 50°58' E 001°51'918.5
2017-Jun-14 15:30N 51°00' E 001°36'1121.4
2017-Jun-14 15:01N 51°06' E 001°23'2 1.8
2017-Jun-14 13:57N 51°07' E 001°20'4 8.5
2017-Jun-14 13:30N 51°07' E 001°26'1019.5
2017-Jun-14 13:00N 51°01' E 001°38'816.5
2017-Jun-14 12:30N 50°58' E 001°51'0 0.5
2017-Jun-14 12:00N 50°58' E 001°51'0 0.5
2017-Jun-14 11:30N 50°58' E 001°51'816.6
2017-Jun-14 11:00N 50°60' E 001°38'918.8
2017-Jun-14 10:30N 51°05' E 001°25'4 8.4
2017-Jun-14 10:00N 51°07' E 001°20'0 0.0
2017-Jun-14 09:30N 51°07' E 001°20'0 0.9
2017-Jun-14 09:00N 51°07' E 001°21'919.3
2017-Jun-14 08:31N 51°03' E 001°34'1019.7
2017-Jun-14 08:01N 50°58' E 001°48'2 4.2
2017-Jun-14 07:30N 50°58' E 001°51'0 0.0
2017-Jun-14 07:00N 50°58' E 001°51'713.9
2017-Jun-14 06:30N 50°58' E 001°40'918.6
2017-Jun-14 06:00N 51°04' E 001°28'612.5
2017-Jun-14 05:30N 51°07' E 001°20'0 0.0
2017-Jun-14 04:59N 51°07' E 001°20'0 0.1
2017-Jun-14 04:30N 51°07' E 001°20'0 0.3
2017-Jun-14 04:00N 51°07' E 001°20'714.6
2017-Jun-14 03:30N 51°05' E 001°31'918.4
2017-Jun-14 03:00N 50°59' E 001°42'611.2
2017-Jun-14 02:30N 50°58' E 001°51'0 0.0
2017-Jun-14 02:01N 50°58' E 001°51'0 0.0
2017-Jun-14 01:31N 50°58' E 001°51'5 9.2
2017-Jun-14 01:00N 50°58' E 001°44'1019.3
2017-Jun-14 00:30N 51°02' E 001°30'612.1
2017-Jun-14 00:00N 51°06' E 001°23'2 4.2
2017-Jun-13 23:30N 51°07' E 001°20'0 0.1
2017-Jun-13 23:00N 51°07' E 001°20'510.8
2017-Jun-13 22:30N 51°06' E 001°28'918.8
2017-Jun-13 22:00N 51°00' E 001°41'713.9
2017-Jun-13 21:30N 50°58' E 001°51'0 0.0
2017-Jun-13 21:00N 50°58' E 001°51'1 1.1
2017-Jun-13 20:30N 50°58' E 001°50'816.0
2017-Jun-13 20:01N 50°59' E 001°38'  
Track history (hours):
 
Tides and Currents Weather Stations Pressure Air Temp Water Temp Dewpoint Dewpoint Depression Visibility Wind Speed Wind Dir Waves Ship Positions

Pride Of Canterbury

Operator: P & O Ferries

Last reported at 2017-Jun-23 20:00 UTC. Time now 2017-Jun-23 20:27 UTC.
Position N 51°04' E 001°26'.

Length 180 m; draft 5.7 m.

Type: Passenger vessel. MMSI: 232001060.

Date/timePositionNaut miles runAvg speedWind from/ knotsBaromVisibWave heightAir tempDewpointWater temp
2017-Jun-23 20:00N 51°04' E 001°26'5 9.4
2017-Jun-23 19:29N 51°07' E 001°20'0 0.0
2017-Jun-23 18:58N 51°07' E 001°20'2 4.4
2017-Jun-23 18:31N 51°07' E 001°23'918.3
2017-Jun-23 18:00N 51°02' E 001°35'918.0
2017-Jun-23 17:30N 50°58' E 001°49'2 3.0
2017-Jun-23 16:59N 50°58' E 001°51'0 0.0
2017-Jun-23 16:28N 50°58' E 001°51'510.1
2017-Jun-23 16:00N 50°58' E 001°44'917.4
2017-Jun-23 15:30N 51°01' E 001°31'9 5.8
2017-Jun-23 14:01N 51°07' E 001°21'816.2
2017-Jun-23 13:30N 51°04' E 001°32'917.9
2017-Jun-23 13:00N 50°59' E 001°44'5 3.7
2017-Jun-23 11:46N 50°58' E 001°51'2 6.9
2017-Jun-23 11:31N 50°58' E 001°48'1218.2
2017-Jun-23 10:52N 51°02' E 001°31'718.4
2017-Jun-23 10:30N 51°06' E 001°23'2 1.9
2017-Jun-23 09:32N 51°07' E 001°20'0 1.5
2017-Jun-23 09:17N 51°07' E 001°20'415.2
2017-Jun-23 09:00N 51°06' E 001°27'918.5
2017-Jun-23 08:30N 51°01' E 001°39'815.7
2017-Jun-23 08:01N 50°58' E 001°51'0 0.2
2017-Jun-23 07:29N 50°58' E 001°51'1 1.2
2017-Jun-23 06:53N 50°58' E 001°50'615.4
2017-Jun-23 06:31N 50°59' E 001°41'918.2
2017-Jun-23 06:00N 51°03' E 001°28'710.4
2017-Jun-23 05:23N 51°07' E 001°20'0 0.0
2017-Jun-23 04:57N 51°07' E 001°20'0 0.0
2017-Jun-23 04:30N 51°07' E 001°20'2 3.2
2017-Jun-23 04:01N 51°07' E 001°23'816.9
2017-Jun-23 03:30N 51°04' E 001°35'918.5
2017-Jun-23 03:01N 50°58' E 001°47'3 5.4
2017-Jun-23 02:29N 50°58' E 001°51'0 0.0
2017-Jun-23 02:00N 50°58' E 001°51'510.0
2017-Jun-23 01:30N 50°58' E 001°43'1019.3
2017-Jun-23 01:00N 51°03' E 001°30'812.2
2017-Jun-23 00:23N 51°07' E 001°20'0 0.0
2017-Jun-22 23:54N 51°07' E 001°20'2 6.3
2017-Jun-22 23:31N 51°07' E 001°24'917.6
2017-Jun-22 23:01N 51°03' E 001°37'816.6
2017-Jun-22 22:30N 50°58' E 001°47'2 4.6
2017-Jun-22 22:00N 50°58' E 001°51'0 0.0
2017-Jun-22 21:29N 50°58' E 001°51'612.1
2017-Jun-22 21:00N 50°58' E 001°42'1019.4
2017-Jun-22 20:30N 51°03' E 001°28'712.3
2017-Jun-22 19:57N 51°07' E 001°20'0 0.0
2017-Jun-22 19:28N 51°07' E 001°20'1 1.3
2017-Jun-22 19:00N 51°07' E 001°21'918.2
2017-Jun-22 18:31N 51°02' E 001°33'918.6
2017-Jun-22 18:00N 50°58' E 001°46'3 6.1
2017-Jun-22 17:30N 50°58' E 001°51'0 0.0
2017-Jun-22 17:01N 50°58' E 001°51'1 1.9
2017-Jun-22 16:30N 50°58' E 001°50'815.9
2017-Jun-22 16:00N 50°60' E 001°37'918.6
2017-Jun-22 15:30N 51°05' E 001°25'4 7.4
2017-Jun-22 14:59N 51°07' E 001°20'0 0.0
2017-Jun-22 14:25N 51°07' E 001°20'1010.6
2017-Jun-22 13:31N 51°04' E 001°35'917.7
2017-Jun-22 13:01N 50°58' E 001°45'4 7.5
2017-Jun-22 12:29N 50°58' E 001°51'0 0.0
2017-Jun-22 11:59N 50°58' E 001°51'4 8.9
2017-Jun-22 11:30N 50°58' E 001°44'918.6
2017-Jun-22 11:01N 51°02' E 001°31'913.4
2017-Jun-22 10:22N 51°07' E 001°20'0 0.0
2017-Jun-22 09:47N 51°07' E 001°20'0 0.3
2017-Jun-22 09:27N 51°07' E 001°20'612.2
2017-Jun-22 09:00N 51°05' E 001°28'917.9
2017-Jun-22 08:30N 50°60' E 001°40'714.2
2017-Jun-22 08:00N 50°58' E 001°51'0 0.4
2017-Jun-22 07:31N 50°58' E 001°51'0 0.1
2017-Jun-22 07:00N 50°58' E 001°51'816.2
2017-Jun-22 06:30N 50°59' E 001°38'918.6
2017-Jun-22 06:00N 51°03' E 001°25'510.2
2017-Jun-22 05:30N 51°07' E 001°20'0 0.0
2017-Jun-22 05:00N 51°07' E 001°20'0 0.3
2017-Jun-22 04:30N 51°07' E 001°20'3 5.5
2017-Jun-22 04:00N 51°07' E 001°24'918.0
2017-Jun-22 03:30N 51°03' E 001°38'816.1
2017-Jun-22 03:00N 50°58' E 001°47'2 4.8
2017-Jun-22 02:30N 50°58' E 001°51'0 0.0
2017-Jun-22 02:00N 50°58' E 001°51'4 7.4
2017-Jun-22 01:30N 50°58' E 001°45'917.7
2017-Jun-22 01:00N 51°01' E 001°32'815.2
2017-Jun-22 00:31N 51°06' E 001°23'2 3.6
2017-Jun-21 23:51N 51°07' E 001°20'0 0.4
2017-Jun-21 23:30N 51°07' E 001°20'715.0
2017-Jun-21 23:00N 51°05' E 001°32'918.4
2017-Jun-21 22:30N 50°59' E 001°43'510.7
2017-Jun-21 22:01N 50°58' E 001°51'0 0.0
2017-Jun-21 21:30N 50°58' E 001°51'2 3.1
2017-Jun-21 21:00N 50°58' E 001°49'1019.5
2017-Jun-21 20:30N 51°01' E 001°34'918.6
2017-Jun-21 20:00N 51°06' E 001°22'2 1.3
2017-Jun-21 18:46N 51°07' E 001°20'2 8.5
2017-Jun-21 18:31N 51°07' E 001°24'1019.2
2017-Jun-21 18:00N 51°01' E 001°36'918.6
2017-Jun-21 17:31N 50°58' E 001°50'1 1.5
2017-Jun-21 17:01N 50°58' E 001°51'0 0.0
2017-Jun-21 16:31N 50°58' E 001°51'4 8.0
2017-Jun-21 16:00N 50°58' E 001°45'916.9
2017-Jun-21 15:30N 51°01' E 001°32'918.4
2017-Jun-21 15:00N 51°07' E 001°21'1 1.2
2017-Jun-21 14:30N 51°07' E 001°20'6 6.4
2017-Jun-21 13:30N 51°05' E 001°30'1019.3
2017-Jun-21 13:01N 50°59' E 001°42'611.5
2017-Jun-21 12:30N 50°58' E 001°51'0 0.0
2017-Jun-21 11:55N 50°58' E 001°51'2 6.0
2017-Jun-21 11:31N 50°58' E 001°47'1117.9
2017-Jun-21 10:52N 51°02' E 001°30'719.0
2017-Jun-21 10:30N 51°07' E 001°22'2 2.9
2017-Jun-21 09:59N 51°07' E 001°20'0 0.0
2017-Jun-21 09:30N 51°07' E 001°20'2 3.9
2017-Jun-21 09:00N 51°07' E 001°23'917.1
2017-Jun-21 08:30N 51°03' E 001°35'917.6
2017-Jun-21 08:00N 50°58' E 001°47'3 5.4
2017-Jun-21 07:30N 50°58' E 001°51'0 0.0
2017-Jun-21 06:59N 50°58' E 001°51'613.1
2017-Jun-21 06:30N 50°58' E 001°41'918.5
2017-Jun-21 06:00N 51°03' E 001°28'712.9
2017-Jun-21 05:29N 51°07' E 001°20'0 0.0
2017-Jun-21 04:33N 51°07' E 001°20'0 2.6
2017-Jun-21 04:29N 51°07' E 001°20'510.7
2017-Jun-21 04:01N 51°06' E 001°28'918.9
2017-Jun-21 03:30N 50°60' E 001°39'816.3
2017-Jun-21 03:00N 50°58' E 001°52'0 0.1
2017-Jun-21 02:30N 50°58' E 001°52'0 0.0
2017-Jun-21 02:00N 50°58' E 001°52'0 0.3
2017-Jun-21 01:30N 50°58' E 001°51'714.5
2017-Jun-21 01:00N 50°58' E 001°40'918.0
2017-Jun-21 00:30N 51°04' E 001°29'610.4
2017-Jun-20 23:53N 51°07' E 001°20'0 0.0
2017-Jun-20 23:27N 51°07' E 001°20'2 4.9
2017-Jun-20 23:01N 51°07' E 001°23'1019.1
2017-Jun-20 22:30N 51°02' E 001°37'917.7
2017-Jun-20 22:00N 50°58' E 001°49'1 2.0
2017-Jun-20 21:30N 50°58' E 001°51'0 0.0
2017-Jun-20 21:00N 50°58' E 001°51'5 9.9
2017-Jun-20 20:29N 50°58' E 001°43'919.5
2017-Jun-20 20:00N 51°03' E 001°30'8 8.1
2017-Jun-20 19:03N 51°07' E 001°20'0 0.0
2017-Jun-20 19:01N 51°07' E 001°20'0 0.2
2017-Jun-20 18:30N 51°07' E 001°20'612.8
2017-Jun-20 18:00N 51°05' E 001°30'919.0
2017-Jun-20 17:30N 50°60' E 001°42'611.7
2017-Jun-20 17:00N 50°58' E 001°51'0 0.0
2017-Jun-20 16:30N 50°58' E 001°51'1 2.8
2017-Jun-20 16:00N 50°58' E 001°49'816.4
2017-Jun-20 15:30N 50°59' E 001°36'918.6
2017-Jun-20 15:00N 51°05' E 001°24'4 7.1
2017-Jun-20 14:30N 51°07' E 001°20'3 3.4
2017-Jun-20 13:30N 51°07' E 001°25'918.5
2017-Jun-20 13:01N 51°01' E 001°37'917.7
2017-Jun-20 12:30N 50°58' E 001°51'0 0.7
2017-Jun-20 12:00N 50°58' E 001°51'1 1.1
2017-Jun-20 11:30N 50°58' E 001°50'815.9
2017-Jun-20 11:01N 50°60' E 001°38'1019.1
2017-Jun-20 10:30N 51°05' E 001°25'4 7.6
2017-Jun-20 09:59N 51°07' E 001°20'0 0.1
2017-Jun-20 09:19N 51°07' E 001°20'2 5.3
2017-Jun-20 09:00N 51°07' E 001°23'918.3
2017-Jun-20 08:30N 51°03' E 001°35'816.7
2017-Jun-20 08:00N 50°58' E 001°47'3 4.1
2017-Jun-20 07:20N 50°58' E 001°51'0 0.0
2017-Jun-20 06:58N 50°58' E 001°51'4 9.0
2017-Jun-20 06:31N 50°58' E 001°45'1019.5
2017-Jun-20 06:00N 51°02' E 001°30'816.0
2017-Jun-20 05:29N 51°07' E 001°20'0 0.1
2017-Jun-20 05:01N 51°07' E 001°20'0 0.0
2017-Jun-20 04:30N 51°07' E 001°20'1 1.4
2017-Jun-20 04:00N 51°07' E 001°21'817.1
2017-Jun-20 03:30N 51°05' E 001°34'816.7
2017-Jun-20 03:00N 50°59' E 001°44'5 9.2
2017-Jun-20 02:30N 50°58' E 001°51'0 0.0
2017-Jun-20 02:00N 50°58' E 001°51'0 0.0
2017-Jun-20 01:30N 50°58' E 001°51'510.2
2017-Jun-20 01:00N 50°58' E 001°43'713.8
2017-Jun-20 00:30N 50°60' E 001°32'713.7
2017-Jun-20 00:00N 51°04' E 001°24'4 4.9
2017-Jun-19 23:10N 51°07' E 001°20'0 0.0
2017-Jun-19 22:59N 51°07' E 001°20'612.9
2017-Jun-19 22:31N 51°06' E 001°30'1019.1
2017-Jun-19 22:01N 50°60' E 001°41'612.7
2017-Jun-19 21:30N 50°58' E 001°51'0 0.0
2017-Jun-19 21:00N 50°58' E 001°51'3 6.2
2017-Jun-19 20:30N 50°58' E 001°46'1019.6
2017-Jun-19 20:00N 51°02' E 001°32'712.9
2017-Jun-19 19:30N 51°06' E 001°24'3 3.9
2017-Jun-19 18:50N 51°07' E 001°20'0 0.0
2017-Jun-19 18:24N 51°07' E 001°20'411.2
2017-Jun-19 18:00N 51°06' E 001°27'1019.7
2017-Jun-19 17:30N 51°01' E 001°40'815.1
2017-Jun-19 17:00N 50°58' E 001°51'0 0.1
2017-Jun-19 16:30N 50°58' E 001°51'0 0.0
2017-Jun-19 16:00N 50°58' E 001°51'713.2
2017-Jun-19 15:30N 50°59' E 001°41'919.0
2017-Jun-19 15:01N 51°04' E 001°28'6 5.9
2017-Jun-19 13:58N 51°07' E 001°20'4 8.9
2017-Jun-19 13:30N 51°06' E 001°26'816.2
2017-Jun-19 13:00N 51°02' E 001°37'917.5
2017-Jun-19 12:30N 50°58' E 001°50'1 1.7
2017-Jun-19 12:00N 50°58' E 001°51'0 0.0
2017-Jun-19 11:30N 50°58' E 001°51'510.2
2017-Jun-19 11:00N 50°58' E 001°43'917.7
2017-Jun-19 10:30N 51°03' E 001°31'816.5
2017-Jun-19 10:00N 51°07' E 001°20'0 0.0
2017-Jun-19 09:21N 51°07' E 001°20'2 5.8
2017-Jun-19 09:00N 51°07' E 001°23'917.2
2017-Jun-19 08:30N 51°03' E 001°35'816.7
2017-Jun-19 08:00N 50°58' E 001°46'3 6.1
2017-Jun-19 07:30N 50°58' E 001°51'0 0.0
2017-Jun-19 07:01N 50°58' E 001°51'510.4
2017-Jun-19 06:30N 50°58' E 001°43'918.1
2017-Jun-19 06:00N 51°03' E 001°31'815.2
2017-Jun-19 05:29N 51°07' E 001°20'0 0.0
2017-Jun-19 04:56N 51°07' E 001°20'0 0.0
2017-Jun-19 04:21N 51°07' E 001°20'0 1.4
2017-Jun-19 04:00N 51°07' E 001°21'917.1
2017-Jun-19 03:30N 51°03' E 001°33'917.9
2017-Jun-19 03:00N 50°58' E 001°45'4 6.4
2017-Jun-19 02:22N 50°58' E 001°51'0 0.0
2017-Jun-19 01:58N 50°58' E 001°51'0 0.0
2017-Jun-19 01:30N 50°58' E 001°51'510.8
2017-Jun-19 01:00N 50°58' E 001°42'713.6
2017-Jun-19 00:30N 50°57' E 001°32'917.9
2017-Jun-19 00:00N 51°05' E 001°25'4 7.6
2017-Jun-18 23:29N 51°07' E 001°20'0 0.1
2017-Jun-18 23:00N 51°07' E 001°20'714.1
2017-Jun-18 22:31N 51°06' E 001°31'917.8
2017-Jun-18 22:00N 50°60' E 001°42'611.1
2017-Jun-18 21:27N 50°58' E 001°51'0 0.0
2017-Jun-18 20:56N 50°58' E 001°51'0 0.5
2017-Jun-18 20:31N 50°58' E 001°51'816.2
2017-Jun-18 20:01N 50°60' E 001°38'917.8
2017-Jun-18 19:30N 51°04' E 001°26'5 4.4
2017-Jun-18 18:26N 51°07' E 001°20'4 8.4
2017-Jun-18 18:00N 51°06' E 001°26'917.8
2017-Jun-18 17:30N 51°01' E 001°37'815.9
2017-Jun-18 17:00N 50°58' E 001°49'1 2.8
2017-Jun-18 16:29N 50°58' E 001°51'0 0.5
2017-Jun-18 15:58N 50°58' E 001°51'817.8
2017-Jun-18 15:30N 50°59' E 001°38'917.1
2017-Jun-18 15:00N 51°04' E 001°27'5 5.1
2017-Jun-18 13:57N 51°07' E 001°20'4 8.0
2017-Jun-18 13:30N 51°06' E 001°25'917.5
2017-Jun-18 13:00N 51°02' E 001°37'917.2
2017-Jun-18 12:30N 50°58' E 001°50'1 1.9
2017-Jun-18 12:00N 50°58' E 001°51'0 0.0
2017-Jun-18 11:30N 50°58' E 001°51'713.1
2017-Jun-18 11:00N 50°58' E 001°41'817.0
2017-Jun-18 10:30N 51°03' E 001°30'811.5
2017-Jun-18 09:51N 51°07' E 001°20'0 0.0
2017-Jun-18 09:26N 51°07' E 001°20'3 6.5
2017-Jun-18 09:00N 51°07' E 001°24'816.7
2017-Jun-18 08:30N 51°03' E 001°36'816.9
2017-Jun-18 08:00N 50°58' E 001°47'2 4.9
2017-Jun-18 07:31N 50°58' E 001°51'0 0.0
2017-Jun-18 07:00N 50°58' E 001°51'714.3
2017-Jun-18 06:30N 50°59' E 001°40'918.1
2017-Jun-18 06:01N 51°04' E 001°28'611.6
2017-Jun-18 05:30N 51°07' E 001°20'0 0.0
2017-Jun-18 05:00N 51°07' E 001°20'0 0.0
2017-Jun-18 04:10N 51°07' E 001°20'0 1.8
2017-Jun-18 04:00N 51°07' E 001°21'917.9
2017-Jun-18 03:31N 51°05' E 001°34'918.9
2017-Jun-18 03:00N 50°58' E 001°45'4 7.7
2017-Jun-18 02:30N 50°58' E 001°51'0 0.0
2017-Jun-18 01:56N 50°58' E 001°51'0 0.0
2017-Jun-18 01:24N 50°58' E 001°51'4 9.5
2017-Jun-18 01:00N 50°58' E 001°45'816.2
2017-Jun-18 00:30N 51°01' E 001°33'917.4
2017-Jun-18 00:00N 51°06' E 001°22'2 2.6
2017-Jun-17 23:17N 51°07' E 001°20'0 0.5
2017-Jun-17 23:00N 51°07' E 001°20'815.5
2017-Jun-17 22:31N 51°04' E 001°31'918.0
2017-Jun-17 22:01N 50°59' E 001°43'510.2
2017-Jun-17 21:30N 50°58' E 001°51'0 0.0
2017-Jun-17 20:59N 50°58' E 001°51'0 0.8
2017-Jun-17 20:30N 50°58' E 001°51'816.5
2017-Jun-17 20:00N 50°59' E 001°37'816.6
2017-Jun-17 19:30N 51°04' E 001°27'6 5.0
2017-Jun-17 18:23N 51°07' E 001°20'513.8
2017-Jun-17 18:01N 51°07' E 001°29'816.2
2017-Jun-17 17:30N 51°02' E 001°38'816.3
2017-Jun-17 17:00N 50°58' E 001°50'1 1.0
2017-Jun-17 16:25N 50°58' E 001°51'0 0.0
2017-Jun-17 16:00N 50°58' E 001°51'713.2
2017-Jun-17 15:30N 50°59' E 001°41'1019.1
2017-Jun-17 15:00N 51°04' E 001°28'6 4.7
2017-Jun-17 13:45N 51°07' E 001°20'312.9
2017-Jun-17 13:30N 51°07' E 001°25'816.1
2017-Jun-17 13:00N 51°02' E 001°36'817.0
2017-Jun-17 12:30N 50°58' E 001°47'2 4.6
2017-Jun-17 12:00N 50°58' E 001°51'0 0.0
2017-Jun-17 11:30N 50°58' E 001°51'713.3
2017-Jun-17 11:00N 50°58' E 001°40'918.4
2017-Jun-17 10:30N 51°04' E 001°29'7 7.0
2017-Jun-17 09:33N 51°07' E 001°20'0 0.0
2017-Jun-17 09:29N 51°07' E 001°20'2 4.8
2017-Jun-17 09:01N 51°07' E 001°24'917.4
2017-Jun-17 08:30N 51°03' E 001°36'817.0
2017-Jun-17 08:00N 50°58' E 001°47'2 3.8
2017-Jun-17 07:22N 50°58' E 001°51'0 0.0
2017-Jun-17 06:59N 50°58' E 001°51'510.9
2017-Jun-17 06:30N 50°58' E 001°43'1019.3
2017-Jun-17 06:00N 51°03' E 001°29'7 4.1
2017-Jun-17 04:12N 51°07' E 001°20'315.1
2017-Jun-17 04:00N 51°07' E 001°25'1019.3
2017-Jun-17 03:30N 51°02' E 001°38'816.8
2017-Jun-17 03:00N 50°58' E 001°50'1 2.0
2017-Jun-17 02:30N 50°58' E 001°52'0 0.0
2017-Jun-17 02:00N 50°58' E 001°52'0 0.0
2017-Jun-17 01:30N 50°58' E 001°52'4 8.3
2017-Jun-17 01:00N 50°58' E 001°45'917.8
2017-Jun-17 00:31N 51°01' E 001°32'918.7
2017-Jun-17 00:01N 51°06' E 001°20'1 1.9
2017-Jun-16 23:30N 51°07' E 001°20'0 0.0
2017-Jun-16 23:00N 51°07' E 001°20'510.9
2017-Jun-16 22:31N 51°05' E 001°28'917.2
2017-Jun-16 22:01N 51°01' E 001°40'815.1
2017-Jun-16 21:31N 50°58' E 001°51'0 0.2
2017-Jun-16 21:00N 50°58' E 001°51'0 0.9
2017-Jun-16 20:31N 50°58' E 001°50'917.2
2017-Jun-16 20:01N 50°60' E 001°37'1019.3
2017-Jun-16 19:31N 51°05' E 001°24'3 6.3
2017-Jun-16 18:57N 51°07' E 001°20'0 0.0
2017-Jun-16 18:30N 51°07' E 001°20'3 5.6
2017-Jun-16 18:01N 51°07' E 001°24'917.3
2017-Jun-16 17:31N 51°03' E 001°37'917.0
2017-Jun-16 17:00N 50°58' E 001°48'2 4.2
2017-Jun-16 16:30N 50°58' E 001°51'0 0.0
2017-Jun-16 16:00N 50°58' E 001°51'612.6
2017-Jun-16 15:30N 50°58' E 001°41'918.9
2017-Jun-16 15:00N 51°03' E 001°29'713.1
2017-Jun-16 14:30N 51°07' E 001°20'1 1.4
2017-Jun-16 13:30N 51°07' E 001°22'1019.5
2017-Jun-16 13:00N 51°02' E 001°36'918.7
2017-Jun-16 12:30N 50°58' E 001°49'1 2.4
2017-Jun-16 12:00N 50°58' E 001°51'0 0.0
2017-Jun-16 11:30N 50°58' E 001°51'714.2
2017-Jun-16 11:00N 50°59' E 001°40'1019.2
2017-Jun-16 10:30N 51°04' E 001°27'5 4.0
2017-Jun-16 09:12N 51°07' E 001°20'315.1
2017-Jun-16 09:00N 51°06' E 001°25'1019.7
2017-Jun-16 08:31N 51°01' E 001°38'917.1
2017-Jun-16 08:00N 50°58' E 001°51'0 0.4
2017-Jun-16 07:30N 50°58' E 001°51'0 0.0
2017-Jun-16 06:59N 50°58' E 001°51'4 9.5
2017-Jun-16 06:31N 50°58' E 001°44'1019.6
2017-Jun-16 06:01N 51°03' E 001°30'8 6.5
2017-Jun-16 04:47N 51°07' E 001°20'0 0.0
2017-Jun-16 04:30N 51°07' E 001°20'1 1.3
2017-Jun-16 04:00N 51°07' E 001°21'917.0
2017-Jun-16 03:31N 51°05' E 001°34'918.6
2017-Jun-16 03:01N 50°58' E 001°45'4 7.8
2017-Jun-16 02:30N 50°58' E 001°51'0 0.0
2017-Jun-16 01:59N 50°58' E 001°51'0 0.0
2017-Jun-16 01:29N 50°58' E 001°51'715.4
2017-Jun-16 01:00N 50°59' E 001°40'1019.7
2017-Jun-16 00:30N 51°04' E 001°26'5 9.7
2017-Jun-16 00:00N 51°07' E 001°20'0 0.0
2017-Jun-15 23:22N 51°07' E 001°20'1 1.7
2017-Jun-15 23:00N 51°07' E 001°21'918.2
2017-Jun-15 22:30N 51°04' E 001°34'1019.3
2017-Jun-15 22:00N 50°58' E 001°46'3 5.9
2017-Jun-15 21:30N 50°58' E 001°51'0 0.0
2017-Jun-15 20:59N 50°58' E 001°51'510.9
2017-Jun-15 20:30N 50°58' E 001°43'918.6
2017-Jun-15 20:00N 51°02' E 001°30'8 9.4
2017-Jun-15 19:10N 51°07' E 001°20'0 0.0
2017-Jun-15 18:47N 51°07' E 001°20'1 2.1
2017-Jun-15 18:30N 51°07' E 001°21'815.2
2017-Jun-15 18:00N 51°04' E 001°32'714.2
2017-Jun-15 17:30N 50°59' E 001°41'612.8
2017-Jun-15 17:00N 50°58' E 001°51'0 0.7
2017-Jun-15 16:29N 50°58' E 001°51'0 0.0
2017-Jun-15 16:00N 50°58' E 001°51'815.4
2017-Jun-15 15:29N 50°60' E 001°38'919.8
2017-Jun-15 15:00N 51°05' E 001°26'5 9.1
2017-Jun-15 14:30N 51°07' E 001°20'3 2.6
2017-Jun-15 13:30N 51°07' E 001°24'917.0
2017-Jun-15 13:00N 51°03' E 001°36'918.3
2017-Jun-15 12:30N 50°58' E 001°48'2 3.6
2017-Jun-15 12:00N 50°58' E 001°51'0 0.0
2017-Jun-15 11:30N 50°58' E 001°51'613.0
2017-Jun-15 11:01N 50°59' E 001°41'1019.3
2017-Jun-15 10:31N 51°04' E 001°28'610.0
2017-Jun-15 09:54N 51°07' E 001°20'0 0.0
2017-Jun-15 09:30N 51°07' E 001°20'0 0.8
2017-Jun-15 09:00N 51°07' E 001°21'1019.3
2017-Jun-15 08:30N 51°03' E 001°35'1019.1
2017-Jun-15 08:00N 50°58' E 001°48'2 4.2
2017-Jun-15 07:30N 50°58' E 001°51'0 0.0
2017-Jun-15 06:58N 50°58' E 001°51'613.2
2017-Jun-15 06:30N 50°58' E 001°42'1019.0
2017-Jun-15 06:00N 51°04' E 001°29'7 4.6
2017-Jun-15 04:33N 51°07' E 001°20'0 0.0
2017-Jun-15 04:28N 51°07' E 001°20'0 0.3
2017-Jun-15 04:00N 51°07' E 001°20'816.6
2017-Jun-15 03:30N 51°04' E 001°32'918.5
2017-Jun-15 03:00N 50°59' E 001°44'4 8.6
2017-Jun-15 02:30N 50°58' E 001°51'0 0.0
2017-Jun-15 02:00N 50°58' E 001°51'0 0.0
2017-Jun-15 01:30N 50°58' E 001°51'3 6.2
2017-Jun-15 01:00N 50°58' E 001°46'918.2
2017-Jun-15 00:30N 51°01' E 001°32'917.3
2017-Jun-15 00:01N 51°06' E 001°22'2 2.8
2017-Jun-14 23:24N 51°07' E 001°20'0 0.6
2017-Jun-14 23:00N 51°07' E 001°20'816.4
2017-Jun-14 22:30N 51°04' E 001°32'1020.5
2017-Jun-14 22:01N 50°58' E 001°45'4 7.1
2017-Jun-14 21:30N 50°58' E 001°51'0 0.0
2017-Jun-14 21:00N 50°58' E 001°51'612.6
2017-Jun-14 20:30N 50°58' E 001°41'916.7
2017-Jun-14 19:59N 51°02' E 001°29'816.1
2017-Jun-14 19:30N 51°07' E 001°20'0 0.0
2017-Jun-14 18:58N 51°07' E 001°20'0 0.6
2017-Jun-14 18:30N 51°07' E 001°20'4 7.9
2017-Jun-14 18:00N 51°06' E 001°26'917.4
2017-Jun-14 17:30N 51°01' E 001°37'917.5
2017-Jun-14 17:01N 50°58' E 001°50'1 1.1
2017-Jun-14 16:30N 50°58' E 001°51'0 0.6
2017-Jun-14 16:00N 50°58' E 001°51'918.5
2017-Jun-14 15:30N 51°00' E 001°36'1121.4
2017-Jun-14 15:01N 51°06' E 001°23'2 1.8
2017-Jun-14 13:57N 51°07' E 001°20'4 8.5
2017-Jun-14 13:30N 51°07' E 001°26'1019.5
2017-Jun-14 13:00N 51°01' E 001°38'816.5
2017-Jun-14 12:30N 50°58' E 001°51'0 0.5
2017-Jun-14 12:00N 50°58' E 001°51'0 0.5
2017-Jun-14 11:30N 50°58' E 001°51'816.6
2017-Jun-14 11:00N 50°60' E 001°38'918.8
2017-Jun-14 10:30N 51°05' E 001°25'4 8.4
2017-Jun-14 10:00N 51°07' E 001°20'0 0.0
2017-Jun-14 09:30N 51°07' E 001°20'0 0.9
2017-Jun-14 09:00N 51°07' E 001°21'919.3
2017-Jun-14 08:31N 51°03' E 001°34'1019.7
2017-Jun-14 08:01N 50°58' E 001°48'2 4.2
2017-Jun-14 07:30N 50°58' E 001°51'0 0.0
2017-Jun-14 07:00N 50°58' E 001°51'713.9
2017-Jun-14 06:30N 50°58' E 001°40'918.6
2017-Jun-14 06:00N 51°04' E 001°28'612.5
2017-Jun-14 05:30N 51°07' E 001°20'0 0.0
2017-Jun-14 04:59N 51°07' E 001°20'0 0.1
2017-Jun-14 04:30N 51°07' E 001°20'0 0.3
2017-Jun-14 04:00N 51°07' E 001°20'714.6
2017-Jun-14 03:30N 51°05' E 001°31'918.4
2017-Jun-14 03:00N 50°59' E 001°42'611.2
2017-Jun-14 02:30N 50°58' E 001°51'0 0.0
2017-Jun-14 02:01N 50°58' E 001°51'0 0.0
2017-Jun-14 01:31N 50°58' E 001°51'5 9.2
2017-Jun-14 01:00N 50°58' E 001°44'1019.3
2017-Jun-14 00:30N 51°02' E 001°30'612.1
2017-Jun-14 00:00N 51°06' E 001°23'2 4.2
2017-Jun-13 23:30N 51°07' E 001°20'0 0.1
2017-Jun-13 23:00N 51°07' E 001°20'510.8
2017-Jun-13 22:30N 51°06' E 001°28'918.8
2017-Jun-13 22:00N 51°00' E 001°41'713.9
2017-Jun-13 21:30N 50°58' E 001°51'0 0.0
2017-Jun-13 21:00N 50°58' E 001°51'1 1.1
2017-Jun-13 20:30N 50°58' E 001°50'816.0
2017-Jun-13 20:01N 50°59' E 001°38'  

Dump ship's entire track history